Time;durP1;ratioP1;P1;durP2;ratioP2;P2;SDS_P1;SDS_P2;PMS_P1;PMS_P2;Temp;Humidity;BMP_temperature;BMP_pressure;BME280_temperature;BME280_humidity;BME280_pressure;Samples;Min_cycle;Max_cycle;Signal;HPM_P1;HPM_P2
2022/05/05 00:01:51;;;;;;;;;17.33;11.67;;;;;16.14;51.31;101742.50;5120865;27;45326;-53
2022/05/05 00:04:18;;;;;;;;;15.00;12.33;;;;;16.15;51.22;101749.53;5121162;27;45349;-54
2022/05/05 00:06:44;;;;;;;;;13.00;11.00;;;;;16.05;51.46;101734.53;5120560;27;45465;-47
2022/05/05 00:09:09;;;;;;;;;13.67;11.33;;;;;16.11;51.94;101747.34;5120562;27;45367;-52
2022/05/05 00:14:25;;;;;;;;;16.67;13.00;;;;;16.13;52.11;101750.69;5120762;27;45448;-53
2022/05/05 00:16:51;;;;;;;;;23.33;13.67;;;;;16.14;52.43;101749.72;5120667;27;45421;-55
2022/05/05 00:19:16;;;;;;;;;14.33;13.00;;;;;16.14;52.31;101753.22;5120395;27;45441;-51
2022/05/05 00:21:42;;;;;;;;;16.00;14.00;;;;;16.07;52.65;101751.34;5120347;27;45400;-54
2022/05/05 00:24:08;;;;;;;;;14.67;12.67;;;;;16.12;52.07;101754.38;5120697;27;45437;-55
2022/05/05 00:26:33;;;;;;;;;15.00;13.00;;;;;16.10;52.16;101753.72;5120290;27;46337;-53
2022/05/05 00:28:59;;;;;;;;;21.00;16.33;;;;;16.07;52.07;101756.69;5120519;27;45284;-54
2022/05/05 00:31:24;;;;;;;;;17.00;12.67;;;;;16.02;52.16;101754.50;5120281;27;45406;-47
2022/05/05 00:33:50;;;;;;;;;13.67;11.00;;;;;15.96;51.98;101761.31;5120766;27;45253;-55
2022/05/05 00:36:16;;;;;;;;;14.67;12.67;;;;;15.92;52.21;101767.16;5120230;27;45266;-48
2022/05/05 00:38:41;;;;;;;;;17.33;16.00;;;;;15.69;52.06;101732.78;5120004;27;45170;-49
2022/05/05 00:41:08;;;;;;;;;13.33;13.33;;;;;15.82;52.28;101753.00;5120292;27;45258;-52
2022/05/05 00:43:34;;;;;;;;;12.33;11.67;;;;;15.78;52.72;101757.00;5120330;27;45368;-50
2022/05/05 00:46:00;;;;;;;;;11.67;11.67;;;;;15.65;53.02;101742.13;5119981;27;46080;-54
2022/05/05 00:48:27;;;;;;;;;16.00;14.67;;;;;15.53;52.59;101737.97;5120015;27;45381;-49
2022/05/05 00:50:53;;;;;;;;;13.33;10.00;;;;;15.53;53.04;101743.34;5120094;27;45324;-50
2022/05/05 00:53:18;;;;;;;;;16.00;13.00;;;;;15.51;53.63;101758.75;5120083;27;45309;-53
2022/05/05 00:55:44;;;;;;;;;16.67;14.33;;;;;15.45;53.69;101751.31;5118615;27;46101;-51
2022/05/05 00:58:10;;;;;;;;;13.67;11.00;;;;;15.37;53.63;101754.75;5119723;27;45307;-55
2022/05/05 01:00:36;;;;;;;;;16.33;12.67;;;;;15.37;53.88;101756.59;5120137;27;45346;-50
2022/05/05 01:03:02;;;;;;;;;11.00;11.00;;;;;15.32;53.90;101759.75;5120111;27;45536;-50
2022/05/05 01:05:28;;;;;;;;;12.00;10.67;;;;;15.26;53.59;101763.06;5119856;27;45962;-53
2022/05/05 01:07:57;;;;;;;;;13.33;10.00;;;;;15.18;53.85;101761.13;5120081;27;45371;-54
2022/05/05 01:10:25;;;;;;;;;16.67;14.00;;;;;15.21;54.22;101762.63;5120193;27;45346;-55
2022/05/05 01:12:51;;;;;;;;;15.00;12.00;;;;;15.14;54.01;101754.38;5120562;27;45557;-60
2022/05/05 01:15:16;;;;;;;;;12.00;10.67;;;;;15.19;54.33;101761.97;5119942;27;46635;-56
2022/05/05 01:17:42;;;;;;;;;12.00;11.33;;;;;15.20;53.91;101766.31;5120014;27;45296;-52
2022/05/05 01:20:17;;;;;;;;;11.33;10.33;;;;;15.23;53.29;101760.66;5120847;27;45358;-55
2022/05/05 01:22:42;;;;;;;;;8.33;8.33;;;;;15.26;52.78;101763.06;5120377;27;45328;-50
2022/05/05 01:28:10;;;;;;;;;11.00;9.33;;;;;15.31;52.44;101759.91;5119705;27;45367;-55
2022/05/05 01:30:38;;;;;;;;;8.00;8.00;;;;;15.29;52.13;101765.41;5119662;27;45365;-51
2022/05/05 01:33:19;;;;;;;;;8.67;4.67;;;;;15.30;52.19;101767.13;5119726;27;45247;-53
2022/05/05 01:35:47;;;;;;;;;9.00;7.00;;;;;15.29;52.14;101764.56;5119070;27;45401;-55
2022/05/05 01:38:16;;;;;;;;;8.33;7.67;;;;;15.18;52.35;101747.72;5119065;27;45390;-49
2022/05/05 01:40:43;;;;;;;;;9.67;8.00;;;;;15.16;52.44;101740.81;5119599;27;45453;-51
2022/05/05 01:43:09;;;;;;;;;8.00;5.67;;;;;15.26;52.81;101754.16;5119690;27;45308;-43
2022/05/05 01:45:35;;;;;;;;;8.00;5.67;;;;;15.22;52.95;101759.00;5119337;27;45473;-53
2022/05/05 01:48:01;;;;;;;;;9.67;7.00;;;;;15.17;52.97;101756.78;5119075;27;45404;-53
2022/05/05 01:50:27;;;;;;;;;14.33;8.67;;;;;15.11;52.96;101746.63;5119124;27;45303;-39
2022/05/05 01:52:53;;;;;;;;;8.67;8.67;;;;;15.15;53.32;101758.75;5119244;27;45353;-53
2022/05/05 01:55:20;;;;;;;;;6.00;6.00;;;;;15.04;53.74;101747.38;5118957;27;45377;-46
2022/05/05 01:57:45;;;;;;;;;5.00;4.00;;;;;15.14;53.49;101758.91;5118838;27;45465;-54
2022/05/05 02:00:11;;;;;;;;;9.00;4.00;;;;;15.11;53.49;101753.84;5118845;27;45324;-52
2022/05/05 02:02:37;;;;;;;;;12.33;8.67;;;;;15.08;53.78;101759.50;5119175;27;45304;-55
2022/05/05 02:05:03;;;;;;;;;9.33;5.00;;;;;15.04;53.96;101761.63;5118984;27;45995;-47
2022/05/05 02:07:28;;;;;;;;;6.33;6.33;;;;;14.98;53.86;101757.72;5117910;27;45412;-50
2022/05/05 02:09:53;;;;;;;;;7.33;7.33;;;;;14.95;54.00;101760.69;5118901;27;45343;-50
2022/05/05 02:12:19;;;;;;;;;9.67;7.33;;;;;14.91;53.64;101766.50;5118969;27;45339;-55
2022/05/05 02:14:45;;;;;;;;;12.33;9.00;;;;;14.87;53.69;101773.16;5118627;27;45516;-51
2022/05/05 02:17:10;;;;;;;;;13.33;9.67;;;;;14.82;54.00;101775.44;5118299;27;45201;-52
2022/05/05 02:19:36;;;;;;;;;11.00;10.00;;;;;14.78;54.07;101772.22;5118761;27;45501;-54
2022/05/05 02:22:02;;;;;;;;;15.67;7.00;;;;;14.72;53.59;101765.63;5100517;27;45251;-54
2022/05/05 02:24:27;;;;;;;;;9.67;8.67;;;;;14.66;54.16;101773.41;5109790;27;47118;-48
2022/05/05 02:26:53;;;;;;;;;12.00;9.33;;;;;14.60;54.49;101768.66;5118578;27;45270;-53
2022/05/05 02:29:18;;;;;;;;;13.67;10.00;;;;;14.55;54.51;101766.41;5118661;27;45623;-49
2022/05/05 02:31:43;;;;;;;;;11.67;10.00;;;;;14.50;54.66;101763.34;5118807;27;45444;-55
2022/05/05 02:34:09;;;;;;;;;13.33;10.67;;;;;14.46;54.86;101765.44;5117350;27;45418;-55
2022/05/05 02:39:22;;;;;;;;;16.33;12.00;;;;;14.38;55.71;101756.47;5118470;27;45433;-56
2022/05/05 02:41:48;;;;;;;;;14.00;9.67;;;;;14.33;55.72;101756.06;5118632;27;45441;-53
2022/05/05 02:44:13;;;;;;;;;15.00;12.67;;;;;14.28;56.03;101759.16;5118350;27;45397;-51
2022/05/05 02:46:41;;;;;;;;;14.67;14.33;;;;;14.28;55.95;101761.81;5118276;27;45259;-54
2022/05/05 02:49:07;;;;;;;;;15.33;12.33;;;;;14.23;55.63;101754.25;5118434;27;45336;-52
2022/05/05 02:51:32;;;;;;;;;15.67;11.67;;;;;14.23;56.61;101750.72;5118526;27;45536;-55
2022/05/05 02:56:44;;;;;;;;;13.33;11.00;;;;;14.17;56.16;101760.19;5118246;27;45279;-55
2022/05/05 02:59:09;;;;;;;;;16.67;14.33;;;;;14.15;56.72;101758.63;5118128;27;45495;-53
2022/05/05 03:01:35;;;;;;;;;17.67;12.00;;;;;14.12;56.90;101762.47;5118314;27;45398;-55
2022/05/05 03:04:00;;;;;;;;;17.67;13.67;;;;;14.11;55.92;101763.44;5118121;27;46257;-56
2022/05/05 03:06:25;;;;;;;;;20.00;14.00;;;;;14.09;57.53;101762.75;5117961;27;45371;-54
2022/05/05 03:08:51;;;;;;;;;11.67;11.33;;;;;14.10;57.29;101763.59;5116823;27;45460;-55
2022/05/05 03:11:16;;;;;;;;;15.67;11.33;;;;;14.10;57.09;101761.75;5118272;27;45360;-55
2022/05/05 03:13:41;;;;;;;;;19.00;14.67;;;;;14.12;57.60;101764.28;5117876;27;45980;-52
2022/05/05 03:16:07;;;;;;;;;15.67;12.33;;;;;14.09;57.33;101759.22;5117968;27;45382;-53
2022/05/05 03:18:32;;;;;;;;;18.00;15.00;;;;;14.12;57.54;101762.47;5118723;27;45494;-50
2022/05/05 03:20:58;;;;;;;;;18.67;14.00;;;;;14.13;57.14;101763.31;5121739;27;45386;-53
2022/05/05 03:23:23;;;;;;;;;18.00;12.00;;;;;14.13;57.55;101761.47;5120860;27;45444;-49
2022/05/05 03:25:48;;;;;;;;;14.33;12.67;;;;;14.09;57.74;101751.19;5121193;27;45460;-51
2022/05/05 03:28:14;;;;;;;;;19.67;14.67;;;;;14.10;58.19;101764.41;5121682;27;45369;-49
2022/05/05 03:30:41;;;;;;;;;16.00;13.00;;;;;14.07;58.07;101762.03;5120442;27;45333;-51
2022/05/05 03:33:07;;;;;;;;;17.00;15.00;;;;;14.03;58.25;101757.97;5120734;27;46251;-54
2022/05/05 03:35:33;;;;;;;;;16.00;13.67;;;;;14.01;58.00;101759.09;5121102;27;45290;-51
2022/05/05 03:37:59;;;;;;;;;17.33;12.67;;;;;14.00;58.05;101762.78;5121287;27;45239;-52
2022/05/05 03:40:24;;;;;;;;;21.67;16.00;;;;;14.00;58.69;101762.78;5121317;27;45202;-56
2022/05/05 03:42:50;;;;;;;;;15.33;13.67;;;;;13.99;58.34;101759.25;5120644;27;45297;-54
2022/05/05 03:45:15;;;;;;;;;15.00;9.00;;;;;13.97;57.79;101755.88;5121148;27;45268;-54
2022/05/05 03:47:41;;;;;;;;;11.67;10.67;;;;;13.96;57.85;101775.59;5121280;27;45794;-47
2022/05/05 03:50:07;;;;;;;;;15.00;14.67;;;;;13.92;58.30;101769.69;5121320;27;45284;-55
2022/05/05 03:52:32;;;;;;;;;14.33;10.33;;;;;13.90;59.40;101774.31;5120893;27;45289;-51
2022/05/05 03:54:57;;;;;;;;;20.33;12.67;;;;;13.86;59.16;101766.72;5120305;27;45470;-56
2022/05/05 03:57:23;;;;;;;;;13.33;10.33;;;;;13.88;59.11;101776.28;5121167;27;45401;-54
2022/05/05 03:59:48;;;;;;;;;17.33;13.67;;;;;13.88;59.58;101773.63;5121089;27;45312;-56
2022/05/05 04:02:13;;;;;;;;;10.00;9.67;;;;;13.90;58.87;101776.16;5120757;27;45409;-56
2022/05/05 04:04:39;;;;;;;;;9.67;8.67;;;;;13.93;59.72;101778.53;5120947;27;45442;-50
2022/05/05 04:07:04;;;;;;;;;14.00;13.00;;;;;13.93;59.47;101779.38;5121079;27;45377;-53
2022/05/05 04:09:29;;;;;;;;;17.33;13.67;;;;;13.91;58.61;101773.34;5120850;27;45474;-53
2022/05/05 04:11:55;;;;;;;;;14.00;11.67;;;;;13.92;59.10;101777.69;5120528;27;47273;-52
2022/05/05 04:14:21;;;;;;;;;13.00;11.00;;;;;13.91;59.05;101780.53;5120610;27;45326;-52
2022/05/05 04:16:46;;;;;;;;;14.67;12.67;;;;;13.90;59.57;101779.66;5120798;27;45400;-50
2022/05/05 04:19:12;;;;;;;;;17.33;8.00;;;;;13.87;58.94;101768.44;5120868;27;45452;-53
2022/05/05 04:21:37;;;;;;;;;11.00;10.00;;;;;13.89;59.48;101782.50;5120775;27;45834;-45
2022/05/05 04:24:03;;;;;;;;;17.33;14.67;;;;;13.88;59.45;101784.31;5120505;27;45345;-51
2022/05/05 04:26:29;;;;;;;;;15.00;11.00;;;;;13.86;58.98;101780.97;5120410;27;45786;-50
2022/05/05 04:28:58;;;;;;;;;12.33;11.00;;;;;13.86;59.17;101786.31;5120824;27;45226;-45
2022/05/05 04:31:27;;;;;;;;;16.67;14.67;;;;;13.88;59.37;101792.34;5120266;27;46122;-50
2022/05/05 04:33:52;;;;;;;;;14.67;10.33;;;;;13.87;59.62;101795.19;5120409;27;45389;-50
2022/05/05 04:36:18;;;;;;;;;14.67;12.67;;;;;13.89;59.33;101787.84;5120324;27;45329;-51
2022/05/05 04:38:45;;;;;;;;;10.00;10.00;;;;;13.90;59.50;101787.69;5120656;27;45234;-54
2022/05/05 04:41:11;;;;;;;;;16.33;10.67;;;;;13.92;59.43;101793.75;5120154;27;45490;-53
2022/05/05 04:43:36;;;;;;;;;18.00;11.67;;;;;13.93;59.65;101794.59;5101391;27;45296;-51
2022/05/05 04:46:02;;;;;;;;;16.00;11.67;;;;;13.93;59.84;101794.59;5120210;27;45417;-49
2022/05/05 04:48:27;;;;;;;;;11.67;11.00;;;;;13.86;59.46;101780.97;5120458;27;45409;-48
2022/05/05 04:50:53;;;;;;;;;14.00;14.00;;;;;13.96;58.64;101797.00;5119941;27;47059;-45
2022/05/05 04:53:18;;;;;;;;;14.33;13.00;;;;;13.95;59.45;101792.63;5120022;27;45402;-48
2022/05/05 04:55:43;;;;;;;;;18.33;13.67;;;;;13.95;59.29;101792.63;5119900;27;45898;-54
2022/05/05 04:58:09;;;;;;;;;11.67;11.33;;;;;13.97;59.34;101804.03;5120059;27;45278;-48
2022/05/05 05:00:36;;;;;;;;;17.33;13.00;;;;;13.99;59.82;101810.09;5101520;27;46175;-56
2022/05/05 05:03:01;;;;;;;;;20.00;12.00;;;;;13.87;59.57;101795.19;5120065;27;45521;-48
2022/05/05 05:05:27;;;;;;;;;20.67;17.33;;;;;13.98;59.13;101814.56;5119985;27;45428;-55
2022/05/05 05:07:52;;;;;;;;;15.33;13.67;;;;;13.97;59.37;101812.88;5120169;27;45149;-55
2022/05/05 05:10:17;;;;;;;;;15.33;15.00;;;;;14.00;58.69;101811.75;5119521;27;45378;-54
2022/05/05 05:12:43;;;;;;;;;18.67;16.00;;;;;13.98;59.74;101817.25;5119648;27;45317;-54
2022/05/05 05:15:09;;;;;;;;;20.33;17.00;;;;;13.97;60.21;101820.06;5119587;27;45710;-51
2022/05/05 05:17:34;;;;;;;;;18.00;14.00;;;;;13.94;59.64;101821.19;5119837;27;45173;-51
2022/05/05 05:20:00;;;;;;;;;28.67;17.33;;;;;13.96;60.64;101821.91;5119660;27;45917;-53
2022/05/05 05:22:25;;;;;;;;;17.67;16.00;;;;;13.86;60.00;101809.50;5120003;27;45216;-52
2022/05/05 05:24:51;;;;;;;;;21.67;16.00;;;;;14.00;60.31;101840.34;5119387;27;45625;-54
2022/05/05 05:27:16;;;;;;;;;18.33;16.00;;;;;14.01;60.53;101828.66;5119756;27;45421;-49
2022/05/05 05:29:42;;;;;;;;;19.67;16.67;;;;;14.05;60.55;101835.41;5119491;27;45872;-51
2022/05/05 05:32:08;;;;;;;;;19.67;16.00;;;;;14.07;60.10;101841.44;5119580;27;45648;-52
2022/05/05 05:34:33;;;;;;;;;17.33;15.33;;;;;14.10;60.27;101839.34;5119446;27;45464;-50
2022/05/05 05:36:58;;;;;;;;;22.67;18.67;;;;;14.12;60.96;101839.22;5119701;27;45373;-51
2022/05/05 05:39:24;;;;;;;;;20.33;16.33;;;;;14.16;60.77;101843.28;5119443;27;45426;-57
2022/05/05 05:41:49;;;;;;;;;24.33;17.00;;;;;14.18;60.57;101836.78;5118632;27;45299;-49
2022/05/05 05:44:15;;;;;;;;;24.33;20.67;;;;;14.22;61.12;101842.72;5119444;27;45269;-53
2022/05/05 05:46:40;;;;;;;;;22.00;18.67;;;;;14.28;61.30;101841.28;5119342;27;45354;-50
2022/05/05 05:49:05;;;;;;;;;26.00;20.67;;;;;14.33;60.97;101839.03;5119172;27;46050;-55
2022/05/05 05:51:32;;;;;;;;;23.33;18.67;;;;;14.37;61.10;101846.63;5119038;27;45379;-51
2022/05/05 05:53:57;;;;;;;;;22.67;19.00;;;;;14.32;61.28;101831.97;5119321;27;45363;-53
2022/05/05 05:56:23;;;;;;;;;27.00;25.00;;;;;14.42;61.25;101839.00;5118963;27;45290;-53
2022/05/05 05:58:48;;;;;;;;;26.33;23.33;;;;;14.46;60.83;101847.59;5118524;27;45395;-47
2022/05/05 06:01:13;;;;;;;;;27.33;21.67;;;;;14.48;60.38;101845.59;5119024;27;45322;-50
2022/05/05 06:03:54;;;;;;;;;30.00;20.00;;;;;14.51;60.46;101848.03;5119022;27;45260;-50
2022/05/05 06:06:20;;;;;;;;;27.00;25.33;;;;;14.55;60.68;101859.28;5119043;27;45279;-55
2022/05/05 06:08:46;;;;;;;;;26.00;22.00;;;;;14.53;60.79;101843.34;5118726;27;47188;-47
2022/05/05 06:11:12;;;;;;;;;28.33;22.00;;;;;14.58;60.77;101842.91;5099893;27;45355;-52
2022/05/05 06:13:38;;;;;;;;;25.33;20.67;;;;;14.61;60.91;101843.47;5118816;27;45380;-50
2022/05/05 06:16:04;;;;;;;;;28.33;26.00;;;;;14.67;60.87;101842.06;5119090;27;45317;-54
2022/05/05 06:18:30;;;;;;;;;27.67;20.33;;;;;14.70;60.55;101845.28;5117292;27;45371;-50
2022/05/05 06:20:56;;;;;;;;;27.00;21.33;;;;;14.76;60.48;101845.69;5118591;27;45539;-49
2022/05/05 06:23:22;;;;;;;;;29.33;26.00;;;;;14.78;60.53;101849.06;5118480;27;45293;-55
2022/05/05 06:25:47;;;;;;;;;30.00;23.33;;;;;14.83;60.28;101847.66;5118647;27;45478;-54
2022/05/05 06:28:16;;;;;;;;;15.00;12.00;;;;;14.84;59.86;101849.31;5118619;27;45403;-44
2022/05/05 06:30:41;;;;;;;;;23.67;22.00;;;;;14.84;60.08;101853.84;5118506;27;45235;-47
2022/05/05 06:33:06;;;;;;;;;36.67;24.00;;;;;14.84;60.20;101862.72;5118485;27;45166;-49
2022/05/05 06:35:32;;;;;;;;;24.67;20.67;;;;;14.83;60.22;101862.84;5118657;27;45503;-52
2022/05/05 06:37:57;;;;;;;;;33.67;22.67;;;;;14.81;59.93;101870.19;5118131;27;46171;-47
2022/05/05 06:40:23;;;;;;;;;36.00;22.67;;;;;14.82;60.63;101870.03;5118403;27;45223;-52
2022/05/05 06:42:48;;;;;;;;;30.00;24.33;;;;;14.83;60.44;101869.06;5118158;27;45219;-51
2022/05/05 06:45:14;;;;;;;;;26.67;23.33;;;;;14.86;60.57;101874.13;5118730;27;45405;-47
2022/05/05 06:47:40;;;;;;;;;32.33;23.33;;;;;14.85;60.20;101871.59;5099669;27;46332;-47
2022/05/05 06:50:06;;;;;;;;;27.33;22.33;;;;;14.93;60.56;101874.38;5118068;27;45322;-48
2022/05/05 06:52:32;;;;;;;;;33.00;23.67;;;;;14.96;60.47;101874.94;5118312;27;45373;-57
2022/05/05 06:54:57;;;;;;;;;29.00;23.67;;;;;15.01;60.35;101873.66;5121135;27;45409;-53
2022/05/05 06:57:23;;;;;;;;;23.67;21.00;;;;;15.06;60.47;101885.59;5121879;27;45937;-48
2022/05/05 06:59:48;;;;;;;;;21.67;20.67;;;;;14.98;60.53;101861.38;5121624;27;45421;-44
2022/05/05 07:02:14;;;;;;;;;34.00;28.67;;;;;15.03;60.35;101859.09;5122148;27;45244;-49
2022/05/05 07:07:24;;;;;;;;;31.67;25.00;;;;;15.26;59.66;101885.53;5121912;27;45321;-53
2022/05/05 07:12:33;;;;;;;;;27.00;26.33;;;;;15.36;59.86;101889.81;5121934;27;45389;-51
2022/05/05 07:15:01;;;;;;;;;27.33;24.33;;;;;15.42;59.38;101883.88;5121675;27;45337;-54
2022/05/05 07:17:28;;;;;;;;;30.33;23.00;;;;;15.50;59.69;101884.94;5112329;27;46234;-52
2022/05/05 07:19:54;;;;;;;;;29.67;24.33;;;;;15.56;59.57;101895.06;5121532;27;45428;-50
2022/05/05 07:22:19;;;;;;;;;33.33;23.67;;;;;15.61;59.53;101888.25;5121528;27;45252;-42
2022/05/05 07:24:46;;;;;;;;;28.00;24.33;;;;;15.64;59.03;101879.06;5121826;27;45403;-53
2022/05/05 07:27:12;;;;;;;;;33.67;28.33;;;;;15.75;58.94;101903.00;5121330;27;46367;-53
2022/05/05 07:29:37;;;;;;;;;26.67;23.00;;;;;15.70;58.78;101899.94;5121319;27;45418;-45
2022/05/05 07:32:04;;;;;;;;;29.33;21.00;;;;;15.66;59.23;101894.03;5121649;27;45331;-53
2022/05/05 07:34:29;;;;;;;;;36.33;26.00;;;;;15.61;59.15;101901.66;5121498;27;45321;-52
2022/05/05 07:36:54;;;;;;;;;35.67;26.33;;;;;15.62;59.55;101908.72;5120899;27;45789;-52
2022/05/05 07:39:20;;;;;;;;;31.00;24.33;;;;;15.62;59.55;101914.06;5120199;27;45333;-52
2022/05/05 07:41:45;;;;;;;;;26.67;24.33;;;;;15.62;59.30;101914.06;5121245;27;45413;-53
2022/05/05 07:44:11;;;;;;;;;34.67;27.67;;;;;15.64;59.22;101912.13;5120308;27;45382;-55
2022/05/05 07:46:36;;;;;;;;;29.00;25.00;;;;;15.69;59.09;101914.34;5121255;27;45488;-48
2022/05/05 07:49:04;;;;;;;;;30.67;24.33;;;;;15.75;59.16;101918.25;5121039;27;45400;-52
2022/05/05 07:51:30;;;;;;;;;24.00;20.00;;;;;15.76;58.79;101910.06;5121262;27;45272;-50
2022/05/05 07:56:40;;;;;;;;;27.00;20.00;;;;;16.16;58.09;101909.59;5120660;27;45736;-47
2022/05/05 07:59:06;;;;;;;;;32.33;25.67;;;;;16.34;57.70;101924.84;5120482;27;45684;-52
2022/05/05 08:01:31;;;;;;;;;30.00;22.00;;;;;16.80;56.68;101917.47;5121041;27;45452;-51
2022/05/05 08:03:56;;;;;;;;;25.00;19.67;;;;;17.00;55.27;101916.25;5102285;27;45481;-55
2022/05/05 08:06:22;;;;;;;;;22.67;19.33;;;;;17.16;55.22;101928.94;5102445;27;45989;-51
2022/05/05 08:08:48;;;;;;;;;26.67;24.67;;;;;17.81;54.62;101917.56;5120734;27;45297;-50
2022/05/05 08:11:13;;;;;;;;;35.33;24.33;;;;;18.98;51.24;101892.09;5120879;27;45380;-53
2022/05/05 08:13:39;;;;;;;;;26.33;21.67;;;;;19.06;50.51;101911.78;5120985;27;45425;-57
2022/05/05 08:16:05;;;;;;;;;31.00;24.33;;;;;19.65;49.11;101905.97;5120542;27;45947;-52
2022/05/05 08:18:30;;;;;;;;;30.33;24.67;;;;;20.01;47.90;101918.88;5120797;27;45316;-56
2022/05/05 08:20:55;;;;;;;;;29.33;26.00;;;;;20.71;46.85;101915.06;5120539;27;45319;-54
2022/05/05 08:23:21;;;;;;;;;27.67;23.33;;;;;21.01;45.99;101922.16;5120806;27;45314;-53
2022/05/05 08:28:31;;;;;;;;;24.33;18.67;;;;;20.76;46.47;101905.38;5120398;27;45423;-54
2022/05/05 08:30:58;;;;;;;;;29.33;25.00;;;;;20.63;46.57;101908.72;5120546;27;45436;-54
2022/05/05 08:33:27;;;;;;;;;24.67;23.67;;;;;21.38;44.77;101912.28;5119351;27;45502;-40
2022/05/05 08:35:53;;;;;;;;;28.67;23.67;;;;;22.80;42.09;101910.50;5120046;27;47296;-47
2022/05/05 08:38:18;;;;;;;;;26.00;24.00;;;;;22.89;41.77;101916.63;5120193;27;45271;-44
2022/05/05 08:40:44;;;;;;;;;27.33;24.67;;;;;22.41;42.48;101911.88;5120588;27;45488;-46
2022/05/05 08:43:10;;;;;;;;;21.67;20.33;;;;;23.97;40.51;101922.28;5120311;27;46126;-53
2022/05/05 08:45:37;;;;;;;;;25.00;20.33;;;;;25.29;36.95;101918.63;5120300;27;45969;-48
2022/05/05 08:48:08;;;;;;;;;24.00;21.67;;;;;25.46;36.94;101917.09;5119994;27;45214;-53
2022/05/05 08:50:36;;;;;;;;;24.00;22.33;;;;;26.41;35.15;101924.44;5120207;27;45406;-53
2022/05/05 08:53:04;;;;;;;;;26.00;22.00;;;;;26.03;36.00;101923.47;5120619;27;45362;-52
2022/05/05 08:55:30;;;;;;;;;23.33;21.00;;;;;25.37;36.81;101930.13;5118871;27;46235;-47
2022/05/05 08:57:56;;;;;;;;;28.00;23.67;;;;;24.62;37.13;101924.22;5120075;27;45381;-51
2022/05/05 09:00:22;;;;;;;;;29.00;25.00;;;;;24.10;38.76;101923.16;5119981;27;45405;-55
2022/05/05 09:02:56;;;;;;;;;21.67;20.67;;;;;23.46;39.45;101926.31;5120205;27;45431;-47
2022/05/05 09:05:43;;;;;;;;;21.67;18.67;;;;;23.70;39.22;101929.56;5119951;27;45403;-55
2022/05/05 09:08:30;;;;;;;;;23.33;17.33;;;;;23.25;39.61;101932.69;5119865;27;45379;-52
2022/05/05 09:11:02;;;;;;;;;19.67;19.00;;;;;22.82;39.94;101921.16;5120077;27;45351;-43
2022/05/05 09:13:30;;;;;;;;;24.33;19.00;;;;;22.57;40.42;101929.75;5120254;27;45561;-38
2022/05/05 09:15:56;;;;;;;;;24.33;23.00;;;;;22.48;40.77;101936.34;5118773;27;46138;-39
2022/05/05 09:18:28;;;;;;;;;24.00;20.67;;;;;22.17;41.50;101942.13;5119564;27;45238;-42
2022/05/05 09:20:55;;;;;;;;;18.67;17.00;;;;;21.85;42.48;101936.16;5119665;27;45373;-38
2022/05/05 09:23:37;;;;;;;;;23.67;21.33;;;;;21.65;42.54;101941.34;5119785;27;45210;-41
2022/05/05 09:26:04;;;;;;;;;22.00;16.67;;;;;21.66;42.54;101944.91;5119447;27;45868;-38
2022/05/05 09:28:31;;;;;;;;;20.67;18.67;;;;;21.30;43.47;101934.00;5119276;27;45547;-41
2022/05/05 09:31:03;;;;;;;;;28.67;23.00;;;;;21.40;43.16;101946.25;5119723;27;45436;-38
2022/05/05 09:33:36;;;;;;;;;21.00;17.67;;;;;21.48;42.92;101939.88;5101188;27;45434;-40
2022/05/05 09:36:04;;;;;;;;;22.00;19.00;;;;;22.42;42.17;101940.69;5119379;27;45534;-39
2022/05/05 09:39:02;;;;;;;;;23.33;17.00;;;;;26.25;36.29;101932.13;5119237;27;45391;-39
2022/05/05 09:41:29;;;;;;;;;19.33;16.67;;;;;30.11;30.05;101922.25;5110558;27;45446;-41
2022/05/05 09:44:00;;;;;;;;;19.25;19.00;;;;;32.22;27.54;101910.91;5119434;27;45207;-40
2022/05/05 09:46:25;;;;;;;;;18.50;16.25;;;;;31.93;27.39;101915.91;5119154;27;45306;-42
2022/05/05 09:48:52;;;;;;;;;14.00;13.00;;;;;30.88;28.11;101917.97;5119207;27;45373;-40
2022/05/05 09:51:17;;;;;;;;;13.20;12.60;;;;;29.61;29.17;101913.94;5119478;27;45351;-39
2022/05/05 09:59:17;;;;;;;;;7.80;5.40;;;;;27.52;31.86;101918.84;5118895;27;45446;-37
2022/05/05 10:01:49;;;;;;;;;10.00;9.40;;;;;27.50;31.55;101931.06;5119163;27;45272;-39
2022/05/05 10:04:16;;;;;;;;;11.25;10.50;;;;;27.25;30.98;101926.53;5119186;27;45401;-42
2022/05/05 10:06:43;;;;;;;;;12.75;9.75;;;;;26.44;32.12;101924.00;5119000;27;45465;-45
2022/05/05 10:09:14;;;;;;;;;13.80;9.00;;;;;25.62;34.26;101922.03;5118644;27;45457;-42
2022/05/05 10:11:41;;;;;;;;;9.25;9.00;;;;;24.84;34.70;101924.81;5119080;27;45282;-40
2022/05/05 10:14:09;;;;;;;;;11.75;11.00;;;;;24.14;35.32;101924.41;5118816;27;45295;-38
2022/05/05 10:16:39;;;;;;;;;9.75;9.75;;;;;23.54;36.60;101931.56;5118481;27;46182;-39
2022/05/05 10:19:06;;;;;;;;;10.25;9.25;;;;;23.22;36.76;101934.97;5118478;27;45278;-40
2022/05/05 10:21:43;;;;;;;;;10.25;7.00;;;;;22.87;37.18;101941.22;5119013;27;45365;-40
2022/05/05 10:24:17;;;;;;;;;11.50;10.00;;;;;22.40;37.68;101939.19;5118928;27;45342;-40
2022/05/05 10:26:48;;;;;;;;;10.50;9.50;;;;;22.05;38.44;101943.66;5118361;27;46963;-44
2022/05/05 10:29:36;;;;;;;;;9.75;8.00;;;;;22.62;37.85;101943.53;5118334;27;45416;-44
2022/05/05 10:32:21;;;;;;;;;8.25;8.25;;;;;24.35;35.54;101930.69;5118811;27;45381;-39
2022/05/05 10:34:52;;;;;;;;;8.00;8.00;;;;;23.98;34.57;101934.84;5100047;27;45496;-40
2022/05/05 10:37:20;;;;;;;;;8.75;6.50;;;;;23.34;35.43;101934.22;5118301;27;45267;-38
2022/05/05 10:39:48;;;;;;;;;7.00;7.00;;;;;22.75;36.20;101933.81;5118188;27;45290;-40
2022/05/05 10:42:38;;;;;;;;;6.50;6.50;;;;;22.19;36.95;101936.50;5118551;27;45583;-40
2022/05/05 10:45:16;;;;;;;;;7.00;7.00;;;;;21.64;37.94;101931.53;5118522;27;45620;-47
2022/05/05 10:50:29;;;;;;;;;9.00;6.33;;;;;20.97;39.14;101931.69;5118246;27;45268;-48
2022/05/05 10:52:55;;;;;;;;;7.67;7.67;;;;;20.78;39.13;101924.13;5118462;27;45399;-42
2022/05/05 10:55:26;;;;;;;;;8.00;7.33;;;;;21.48;38.77;101914.69;5118998;27;45322;-45
2022/05/05 10:57:52;;;;;;;;;8.33;6.67;;;;;22.45;36.90;101934.03;5118474;27;46154;-44
2022/05/05 11:00:19;;;;;;;;;10.00;8.00;;;;;22.14;37.13;101918.97;5117940;27;45239;-53
2022/05/05 11:02:56;;;;;;;;;7.00;7.00;;;;;21.76;37.74;101926.47;5118253;27;45434;-50
2022/05/05 11:05:27;;;;;;;;;8.67;8.67;;;;;21.38;38.87;101925.81;5119118;27;45331;-51
2022/05/05 11:07:54;;;;;;;;;8.00;8.00;;;;;21.04;39.35;101935.34;5118104;27;46530;-46
2022/05/05 11:10:41;;;;;;;;;9.00;7.67;;;;;20.74;39.72;101939.06;5117590;27;45457;-53
2022/05/05 11:13:26;;;;;;;;;8.33;8.33;;;;;20.59;40.39;101930.91;5118218;27;45192;-45
2022/05/05 11:21:33;;;;;;;;;8.00;6.33;;;;;22.94;37.16;101921.47;5118203;27;45408;-38
2022/05/05 11:24:00;;;;;;;;;7.00;7.00;;;;;25.14;34.28;101911.56;5117765;27;45236;-48
2022/05/05 11:26:27;;;;;;;;;10.33;8.33;;;;;26.36;32.26;101909.56;5118003;27;45226;-40
2022/05/05 11:28:53;;;;;;;;;7.75;7.25;;;;;25.62;31.76;101915.75;5117829;27;45471;-50
2022/05/05 11:31:21;;;;;;;;;9.25;8.00;;;;;24.69;33.05;101912.47;5117794;27;45290;-41
2022/05/05 11:33:55;;;;;;;;;7.25;6.50;;;;;23.76;34.38;101913.25;5118055;27;45318;-42
2022/05/05 11:36:25;;;;;;;;;8.75;8.00;;;;;22.94;35.35;101892.47;5117922;27;45489;-54
2022/05/05 11:38:51;;;;;;;;;8.00;5.75;;;;;22.41;36.55;101913.75;5117879;27;46090;-43
2022/05/05 11:41:21;;;;;;;;;6.00;6.00;;;;;21.90;37.00;101916.59;5120065;27;45239;-39
2022/05/05 11:46:32;;;;;;;;;9.67;6.67;;;;;21.07;38.02;101923.28;5121248;27;45333;-53
2022/05/05 11:48:58;;;;;;;;;6.00;6.00;;;;;20.77;38.14;101914.31;5121084;27;46294;-41
2022/05/05 11:51:24;;;;;;;;;7.33;6.00;;;;;20.63;38.69;101924.94;5121212;27;45264;-54